Meteo Giornale » Osservazioni meteo Stati Uniti (USA) » Mesa-Falcon Fld
ore: 23:54 - Osservazioni Meteo Mesa-Falcon Fld
Lat. 33° 28' N Lon. 111° 44' W Alt. 424 metri s.l.m.
27 °C
Sereno
Temp. 24 Ore
23 °C
31 °C
Nord
0 Km/h
Dew point 18 °C
Umidità 57 %
Visibilità 10 Km
Il sole sorge alle ore 06:01
Il sole tramonta alle ore 18:52
| Data e Ora | Cielo e Fenomeni | T °C | DP °C | Um. % | Pres. hPa | Vis. km | Vento km/h | |
|---|---|---|---|---|---|---|---|---|
| Ieri h: 23:54 | Sereno | 27 | 18 | 57 | 1014 | 10 | N 0 | |
| Ieri h: 22:54 | Sereno | 27 | 18 | 57 | 1014 | 10 | E/SE 9.3 | |
| Ieri h: 21:54 | Sereno | 28 | 18 | 54 | 1014 | 10 | E/SE 13 | |
| Ieri h: 20:54 | Sereno | 29 | 17 | 48 | 1013 | 10 | SE 7.4 | |
| Ieri h: 19:54 | Sereno | 29 | 16 | 45 | 1012 | 10 | N 5.5 | |
| Ieri h: 18:54 | Sereno | 31 | 16 | 40 | 1012 | 10 | N 5.5 | |
| Ieri h: 17:54 | Sereno | 31 | 16 | 40 | 1012 | 10 | N 0 | |
| Ieri h: 16:54 | Sereno | 31 | 15 | 37 | 1012 | 10 | S/SO 9.3 | |
| Ieri h: 15:54 | Sereno | 30 | 16 | 42 | 1013 | 10 | SE 14.8 | |
| Ieri h: 14:54 | Sereno | 30 | 16 | 42 | 1014 | 10 | SE 14.8 | |
| Ieri h: 13:54 | Sereno | 28 | 19 | 58 | 1016 | 10 | E/NE 14.8 | |
| Ieri h: 12:54 | Sereno | 26 | 19 | 65 | 1016 | 10 | SE 24 | |
| Ieri h: 11:54 | Poco Nuvoloso | 26 | 21 | 73 | 1016 | 10 | E/SE 16.7 | |
| Ieri h: 10:54 | Poco Nuvoloso | 24 | 22 | 88 | 1016 | 10 | SE 13 | |
| Ieri h: 09:54 | Pioggia | 23 | 22 | 94 | 1016 | 14 | E/NE 18.5 | |
| Ieri h: 08:57 | Pioggia Foschia | 23 | 22 | 94 | 1017 | 5 | NE 16.7 | |
| Ieri h: 08:54 | Pioggia Foschia | 23 | 22 | 94 | 1017 | 3 | NE 14.8 | |
| Ieri h: 08:52 | Pioggia Foschia | 24 | 22 | 88 | 1017 | 5 | N/NE 16.7 | |
| Ieri h: 08:44 | Pioggia Foschia | 24 | 22 | 88 | 1017 | 3 | N/NE 11.1 | |
| Ieri h: 08:13 | Pioggia | 24 | 21 | 83 | 1016 | 5 | E/SE 9.3 | |
| Ieri h: 08:06 | Pioggia | 24 | 21 | 83 | 1016 | 3 | E/SE 16.7 | |
| Ieri h: 07:54 | Coperto | 26 | 19 | 65 | 1016 | 10 | E/SE 24 | |
| Ieri h: 07:43 | Temporale nelle vicinanze | 26 | 19 | 65 | 1016 | 10 | E/SE 22.2 | |
| Ieri h: 07:24 | Coperto | 26 | 19 | 65 | 1016 | 10 | SE 18.5 | |
| Ieri h: 07:09 | Temporale nelle vicinanze | 26 | 19 | 65 | 1015 | 10 | E/SE 24 | |
| Ieri h: 06:54 | Molto Nuvoloso | 26 | 19 | 65 | 1014 | 10 | E/SE 27.8 | |
| Ieri h: 05:54 | Nuvoloso | 27 | 18 | 57 | 1014 | 10 | SE 11.1 | |
| Ieri h: 04:54 | Sereno | 27 | 18 | 57 | 1012 | 10 | N 0 | |
| Ieri h: 03:54 | Sereno | 26 | 19 | 65 | 1011 | 10 | N/NE 9.3 | |
| Ieri h: 02:54 | Sereno | 27 | 18 | 57 | 1011 | 10 | NE 14.8 | |
| Ieri h: 01:54 | Sereno | 26 | 19 | 65 | 1012 | 10 | NE 20.3 | |
| Ieri h: 01:39 | Sereno | 26 | 19 | 65 | 1012 | 10 | NE 24 | |
| Ieri h: 01:10 | Temporale nelle vicinanze | 27 | 18 | 57 | 1011 | 10 | N/NE 22.2 | |
| Ieri h: 00:54 | Sereno | 28 | 18 | 54 | 1011 | 10 | N/NE 29.6 | |
| Ieri h: 00:52 | Sereno | 28 | 18 | 54 | 1011 | 10 | N/NE 31.5 | |
| Ieri h: 00:35 | Temporale nelle vicinanze | 28 | 19 | 58 | 1011 | 10 | N/NE 37 | |



